createdAt,value
2018-05-11T00:02:23.317Z,98.20
2018-05-11T00:04:52.435Z,118.30
2018-05-11T00:07:21.592Z,151.87
2018-05-11T00:09:50.733Z,112.50
2018-05-11T00:12:19.981Z,128.93
2018-05-11T00:14:49.137Z,122.47
2018-05-11T00:17:18.299Z,133.87
2018-05-11T00:19:47.429Z,124.73
2018-05-11T00:22:16.620Z,129.30
2018-05-11T00:24:45.743Z,104.60
2018-05-11T00:27:14.861Z,110.80
2018-05-11T00:29:44.049Z,93.97
2018-05-11T00:32:13.265Z,91.50
2018-05-11T00:34:42.396Z,92.60
2018-05-11T00:37:11.522Z,95.77
2018-05-11T00:39:40.679Z,93.77
2018-05-11T00:42:09.790Z,93.10
2018-05-11T00:44:39.035Z,98.50
2018-05-11T00:47:08.247Z,96.93
2018-05-11T00:49:37.382Z,103.70
2018-05-11T00:52:06.534Z,101.57
2018-05-11T00:54:35.821Z,95.67
2018-05-11T00:57:04.940Z,99.97
2018-05-11T00:59:34.078Z,93.27
2018-05-11T01:02:03.295Z,97.53
2018-05-11T01:04:32.503Z,94.77
2018-05-11T01:07:01.645Z,91.13
2018-05-11T01:09:30.796Z,99.50
2018-05-11T01:11:59.968Z,94.27
2018-05-11T01:14:29.148Z,97.13
2018-05-11T01:16:58.315Z,97.83
2018-05-11T01:19:27.415Z,101.13
2018-05-11T01:21:56.552Z,94.23
2018-05-11T01:24:25.734Z,95.63
2018-05-11T01:26:54.876Z,96.53
2018-05-11T01:29:24.020Z,95.00
2018-05-11T01:31:53.172Z,98.27
2018-05-11T01:34:22.312Z,100.17
2018-05-11T01:36:51.432Z,96.20
2018-05-11T01:39:20.629Z,94.00
2018-05-11T01:41:49.738Z,98.10
2018-05-11T01:44:18.857Z,95.83
2018-05-11T01:46:47.995Z,97.60
2018-05-11T01:49:17.142Z,102.60
2018-05-11T01:51:46.286Z,100.73
2018-05-11T01:54:15.460Z,96.43
2018-05-11T01:56:44.601Z,97.80
2018-05-11T01:59:13.715Z,97.97
2018-05-11T02:01:42.862Z,96.20
2018-05-11T02:04:12.017Z,99.77
2018-05-11T02:06:41.154Z,108.47
2018-05-11T02:09:10.325Z,100.30
2018-05-11T02:11:39.451Z,101.17
2018-05-11T02:14:08.578Z,97.23
2018-05-11T02:16:37.784Z,106.30
2018-05-11T02:19:06.924Z,101.50
2018-05-11T02:21:36.071Z,96.10
2018-05-11T02:24:05.326Z,99.87
2018-05-11T02:26:34.468Z,98.43
2018-05-11T02:29:03.625Z,103.73
2018-05-11T02:31:32.751Z,97.90
2018-05-11T02:34:01.900Z,96.50
2018-05-11T02:36:31.113Z,96.67
2018-05-11T02:39:00.257Z,95.13
2018-05-11T02:41:29.381Z,97.27
2018-05-11T02:43:58.559Z,99.37
2018-05-11T02:46:27.688Z,98.70
2018-05-11T02:48:56.862Z,96.57
2018-05-11T02:51:25.992Z,97.73
2018-05-11T02:53:55.165Z,97.50
2018-05-11T02:56:24.312Z,94.47
2018-05-11T02:58:53.543Z,96.73
2018-05-11T03:01:22.696Z,94.77
2018-05-11T03:03:51.840Z,94.77
2018-05-11T03:06:20.980Z,100.83
2018-05-11T03:08:50.222Z,100.13
2018-05-11T03:11:19.462Z,95.77
2018-05-11T03:13:48.609Z,98.27
2018-05-11T03:16:17.747Z,98.50
2018-05-11T03:18:46.905Z,94.90
2018-05-11T03:21:16.036Z,98.60
2018-05-11T03:23:46.354Z,98.27
2018-05-11T03:26:15.548Z,102.07
2018-05-11T03:28:44.724Z,100.93
2018-05-11T03:31:13.897Z,96.47
2018-05-11T03:33:43.068Z,99.97
2018-05-11T03:36:12.263Z,99.63
2018-05-11T03:38:41.404Z,99.00
2018-05-11T03:41:10.580Z,92.30
2018-05-11T03:43:39.730Z,99.13
2018-05-11T03:46:08.872Z,99.73
2018-05-11T03:48:38.031Z,92.40
2018-05-11T03:51:07.145Z,96.33
2018-05-11T03:53:36.333Z,99.23
2018-05-11T03:56:05.472Z,96.30
2018-05-11T03:58:34.623Z,100.70
2018-05-11T04:01:03.797Z,99.30
2018-05-11T04:03:38.684Z,93.90
2018-05-11T04:06:07.860Z,95.23
2018-05-11T04:08:44.217Z,97.77
2018-05-11T04:11:13.384Z,99.73
2018-05-11T04:13:42.536Z,94.63
2018-05-11T04:16:11.653Z,94.00
2018-05-11T04:18:40.837Z,93.37
2018-05-11T04:21:09.954Z,92.37
2018-05-11T04:23:39.072Z,93.70
2018-05-11T04:26:08.219Z,99.23
2018-05-11T04:28:37.347Z,96.90
2018-05-11T04:31:06.488Z,99.30
2018-05-11T04:33:35.599Z,97.20
2018-05-11T04:36:04.800Z,97.47
2018-05-11T04:38:33.966Z,99.37
2018-05-11T04:41:03.635Z,96.60
2018-05-11T04:43:32.776Z,102.00
2018-05-11T04:46:01.927Z,93.23
2018-05-11T04:48:31.054Z,95.10
2018-05-11T04:51:00.196Z,95.30
2018-05-11T04:53:29.341Z,94.57
2018-05-11T04:55:58.491Z,94.27
2018-05-11T04:58:27.655Z,94.63
2018-05-11T05:00:57.328Z,92.70
2018-05-11T05:03:26.435Z,98.97
2018-05-11T05:05:55.564Z,93.97
2018-05-11T05:08:24.763Z,89.90
2018-05-11T05:10:53.881Z,91.07
2018-05-11T05:13:23.033Z,91.10
2018-05-11T05:15:52.179Z,92.77
2018-05-11T05:18:21.315Z,89.63
2018-05-11T05:20:50.481Z,87.80
2018-05-11T05:23:19.635Z,90.07
2018-05-11T05:25:48.796Z,87.40
2018-05-11T05:28:18.681Z,89.10
2018-05-11T05:30:47.876Z,89.67
2018-05-11T05:33:17.000Z,93.80
2018-05-11T05:35:46.144Z,97.30
2018-05-11T05:38:15.289Z,104.27
2018-05-11T05:40:44.441Z,97.17
2018-05-11T05:43:13.611Z,91.50
2018-05-11T05:45:42.748Z,93.77
2018-05-11T05:48:11.907Z,92.03
2018-05-11T05:50:41.029Z,91.53
2018-05-11T05:53:10.212Z,89.07
2018-05-11T05:55:39.371Z,95.50
2018-05-11T05:58:08.563Z,104.17
2018-05-11T06:00:37.734Z,91.93
2018-05-11T06:03:07.050Z,92.40
2018-05-11T06:05:36.216Z,87.10
2018-05-11T06:08:05.351Z,89.57
2018-05-11T06:10:34.505Z,87.10
2018-05-11T06:13:03.712Z,84.20
2018-05-11T06:15:32.951Z,83.87
2018-05-11T06:18:02.065Z,86.63
2018-05-11T06:20:31.257Z,91.63
2018-05-11T06:23:00.474Z,85.43
2018-05-11T06:25:29.642Z,80.20
2018-05-11T06:27:58.773Z,84.60
2018-05-11T06:30:27.981Z,80.47
2018-05-11T06:32:57.123Z,81.07
2018-05-11T06:35:26.465Z,84.37
2018-05-11T06:37:55.676Z,83.30
2018-05-11T06:40:25.184Z,86.97
2018-05-11T06:42:54.335Z,79.53
2018-05-11T06:45:23.574Z,77.43
2018-05-11T06:47:52.747Z,80.97
2018-05-11T06:50:21.899Z,77.70
2018-05-11T06:52:51.060Z,77.70
2018-05-11T06:55:20.223Z,81.90
2018-05-11T06:57:49.612Z,78.80
2018-05-11T07:00:18.791Z,80.90
2018-05-11T07:02:47.943Z,82.20
2018-05-11T07:05:17.097Z,84.50
2018-05-11T07:07:46.275Z,86.80
2018-05-11T07:10:15.592Z,80.40
2018-05-11T07:12:44.731Z,82.07
2018-05-11T07:15:13.861Z,84.90
2018-05-11T07:17:42.986Z,87.73
2018-05-11T07:20:12.180Z,85.27
2018-05-11T07:22:41.389Z,85.60
2018-05-11T07:25:10.512Z,88.77
2018-05-11T07:27:39.655Z,85.60
2018-05-11T07:30:08.842Z,84.90
2018-05-11T07:32:38.047Z,81.90
2018-05-11T07:35:07.164Z,83.50
2018-05-11T07:37:36.318Z,86.00
2018-05-11T07:40:05.501Z,88.70
2018-05-11T07:42:35.176Z,99.20
2018-05-11T07:45:04.296Z,99.07
2018-05-11T07:47:33.441Z,99.13
2018-05-11T07:50:02.589Z,98.80
2018-05-11T07:52:31.750Z,103.33
2018-05-11T07:55:00.877Z,104.47
2018-05-11T07:57:30.026Z,100.27
2018-05-11T07:59:59.167Z,98.87
2018-05-11T08:02:28.325Z,101.87
2018-05-11T08:04:57.451Z,104.87
2018-05-11T08:07:26.592Z,102.33
2018-05-11T08:09:55.730Z,97.80
2018-05-11T08:12:24.862Z,98.90
2018-05-11T08:14:54.006Z,99.80
2018-05-11T08:17:23.144Z,97.67
2018-05-11T08:19:52.282Z,103.57
2018-05-11T08:22:21.455Z,93.27
2018-05-11T08:24:50.569Z,98.10
2018-05-11T08:27:19.742Z,97.07
2018-05-11T08:29:48.933Z,102.03
2018-05-11T08:32:18.073Z,94.20
2018-05-11T08:34:47.213Z,97.10
2018-05-11T08:37:16.366Z,94.67
2018-05-11T08:39:45.542Z,91.90
2018-05-11T08:42:14.679Z,98.00
2018-05-11T08:44:45.299Z,94.60
2018-05-11T08:47:14.444Z,93.20
2018-05-11T08:49:43.593Z,93.20
2018-05-11T08:52:12.757Z,94.50
2018-05-11T08:54:41.913Z,93.07
2018-05-11T08:57:11.073Z,97.70
2018-05-11T08:59:40.209Z,94.03
2018-05-11T09:02:09.320Z,98.27
2018-05-11T09:04:39.072Z,99.10
2018-05-11T09:07:08.239Z,94.37
2018-05-11T09:09:37.413Z,99.40
2018-05-11T09:12:06.565Z,97.17
2018-05-11T09:14:35.701Z,90.93
2018-05-11T09:17:04.845Z,89.03
2018-05-11T09:19:34.005Z,92.53
2018-05-11T09:22:03.292Z,93.67
2018-05-11T09:24:32.415Z,96.80
2018-05-11T09:27:01.565Z,102.77
2018-05-11T09:29:30.710Z,95.17
2018-05-11T09:34:48.081Z,95.40
2018-05-11T09:37:17.234Z,100.53
2018-05-11T09:39:46.478Z,96.70
2018-05-11T09:42:15.495Z,93.77
2018-05-11T09:44:44.631Z,98.60
2018-05-11T09:47:13.817Z,96.73
2018-05-11T09:49:42.967Z,98.07
2018-05-11T09:52:12.122Z,99.20
2018-05-11T09:54:41.242Z,96.47
2018-05-11T09:57:10.417Z,96.47
2018-05-11T09:59:39.567Z,96.27
2018-05-11T10:02:08.748Z,97.03
2018-05-11T10:04:37.920Z,95.43
2018-05-11T10:07:07.080Z,96.23
2018-05-11T10:09:36.209Z,97.17
2018-05-11T10:12:05.385Z,98.23
2018-05-11T10:14:34.529Z,95.30
2018-05-11T10:17:03.773Z,96.17
2018-05-11T10:19:32.952Z,97.10
2018-05-11T10:22:02.077Z,96.07
2018-05-11T10:24:31.219Z,95.07
2018-05-11T10:27:00.398Z,93.10
2018-05-11T10:29:29.544Z,97.57
2018-05-11T10:31:58.691Z,99.03
2018-05-11T10:34:27.845Z,100.40
2018-05-11T10:36:56.959Z,95.57
2018-05-11T10:39:26.088Z,95.30
2018-05-11T10:41:55.283Z,95.00
2018-05-11T10:44:24.434Z,91.37
2018-05-11T10:46:54.893Z,101.70
2018-05-11T10:49:24.053Z,94.90
2018-05-11T10:51:53.176Z,93.63
2018-05-11T10:54:22.333Z,94.13
2018-05-11T10:56:51.525Z,94.83
2018-05-11T10:59:20.775Z,103.00
2018-05-11T11:01:49.980Z,95.90
2018-05-11T11:04:19.141Z,92.70
2018-05-11T11:06:48.280Z,95.37
2018-05-11T11:09:17.497Z,93.80
2018-05-11T11:11:46.739Z,99.27
2018-05-11T11:14:15.888Z,92.47
2018-05-11T11:16:45.045Z,90.77
2018-05-11T11:19:14.231Z,92.30
2018-05-11T11:21:43.345Z,99.83
2018-05-11T11:24:12.482Z,90.57
2018-05-11T11:26:41.857Z,91.87
2018-05-11T11:29:10.995Z,97.87
2018-05-11T11:31:40.130Z,90.27
2018-05-11T11:34:09.319Z,94.70
2018-05-11T11:36:38.643Z,93.10
2018-05-11T11:39:07.767Z,91.60
2018-05-11T11:41:36.916Z,90.30
2018-05-11T11:44:06.121Z,93.60
2018-05-11T11:46:35.292Z,93.70
2018-05-11T11:49:04.431Z,92.27
2018-05-11T11:51:33.596Z,88.43
2018-05-11T11:54:02.710Z,94.90
2018-05-11T11:56:31.877Z,91.77
2018-05-11T11:59:01.044Z,93.87
2018-05-11T12:01:30.267Z,94.47
2018-05-11T12:03:59.737Z,95.10
2018-05-11T12:06:28.888Z,91.37
2018-05-11T12:08:58.062Z,90.00
2018-05-11T12:11:27.167Z,88.60
2018-05-11T12:13:56.334Z,92.90
2018-05-11T12:16:25.472Z,94.20
2018-05-11T12:18:54.623Z,89.70
2018-05-11T12:21:23.775Z,92.17
2018-05-11T12:23:52.938Z,90.93
2018-05-11T12:26:22.168Z,87.90
2018-05-11T12:28:51.248Z,96.57
2018-05-11T12:31:20.393Z,91.87
2018-05-11T12:33:49.576Z,92.57
2018-05-11T12:36:18.732Z,89.73
2018-05-11T12:38:47.856Z,98.67
2018-05-11T12:41:17.081Z,92.47
2018-05-11T12:43:46.302Z,89.60
2018-05-11T12:46:15.359Z,97.70
2018-05-11T12:48:45.001Z,94.93
2018-05-11T12:51:14.131Z,94.70
2018-05-11T12:53:43.261Z,89.30
2018-05-11T12:56:12.424Z,92.97
2018-05-11T12:58:41.586Z,94.73
2018-05-11T13:01:10.728Z,93.20
2018-05-11T13:03:39.911Z,97.70
2018-05-11T13:06:09.074Z,90.97
2018-05-11T13:08:38.229Z,94.97
2018-05-11T13:11:07.407Z,92.87
2018-05-11T13:13:36.531Z,88.17
2018-05-11T13:16:05.656Z,94.80
2018-05-11T13:18:34.879Z,90.23
2018-05-11T13:21:04.043Z,86.50
2018-05-11T13:23:33.187Z,91.83
2018-05-11T13:26:02.365Z,88.93
2018-05-11T13:28:31.557Z,87.60
2018-05-11T13:31:00.678Z,94.97
2018-05-11T13:33:29.821Z,94.00
2018-05-11T13:35:58.971Z,91.57
2018-05-11T13:38:28.104Z,92.63
2018-05-11T13:40:57.267Z,89.70
2018-05-11T13:43:26.408Z,90.40
2018-05-11T13:45:55.537Z,97.10
2018-05-11T13:48:24.824Z,94.97
2018-05-11T13:50:53.864Z,94.17
2018-05-11T13:53:22.977Z,89.63
2018-05-11T13:55:52.143Z,90.93
2018-05-11T13:58:21.265Z,92.10
2018-05-11T14:00:50.459Z,90.63
2018-05-11T14:03:19.604Z,92.23
2018-05-11T14:05:48.759Z,92.00
2018-05-11T14:08:17.880Z,93.73
2018-05-11T14:10:47.010Z,93.10
2018-05-11T14:13:16.172Z,87.77
2018-05-11T14:15:45.300Z,96.00
2018-05-11T14:18:14.437Z,87.40
2018-05-11T14:20:43.615Z,88.50
2018-05-11T14:23:12.744Z,93.20
2018-05-11T14:25:41.897Z,89.83
2018-05-11T14:28:11.040Z,90.27
2018-05-11T14:30:40.211Z,91.20
2018-05-11T14:33:09.436Z,87.97
2018-05-11T14:35:38.558Z,87.77
2018-05-11T14:38:07.732Z,85.60
2018-05-11T14:40:36.885Z,87.27
2018-05-11T14:43:06.140Z,85.07
2018-05-11T14:45:35.305Z,86.50
2018-05-11T14:48:04.501Z,86.30
2018-05-11T14:50:33.648Z,92.67
2018-05-11T14:53:02.798Z,85.03
2018-05-11T14:55:31.953Z,89.07
2018-05-11T14:58:01.109Z,88.77
2018-05-11T15:00:30.273Z,92.07
2018-05-11T15:02:59.457Z,94.20
2018-05-11T15:05:28.568Z,90.83
2018-05-11T15:07:57.709Z,89.40
2018-05-11T15:10:26.964Z,90.60
2018-05-11T15:12:56.103Z,88.07
2018-05-11T15:15:25.261Z,85.40
2018-05-11T15:17:54.409Z,84.80
2018-05-11T15:20:23.566Z,85.90
2018-05-11T15:22:52.692Z,83.47
2018-05-11T15:25:21.895Z,82.20
2018-05-11T15:27:51.173Z,82.77
2018-05-11T15:30:20.311Z,85.13
2018-05-11T15:32:49.531Z,87.77
2018-05-11T15:35:18.694Z,90.40
2018-05-11T15:37:47.845Z,88.57
2018-05-11T15:40:17.011Z,96.53
2018-05-11T15:42:46.245Z,89.53
2018-05-11T15:45:15.517Z,89.17
2018-05-11T15:47:44.638Z,90.77
2018-05-11T15:50:14.110Z,92.17
2018-05-11T15:52:43.317Z,91.83
2018-05-11T15:55:12.494Z,94.40
2018-05-11T15:57:41.781Z,90.37
2018-05-11T16:00:10.922Z,90.63
2018-05-11T16:02:40.064Z,90.00
2018-05-11T16:05:09.288Z,88.80
2018-05-11T16:07:38.451Z,90.40
2018-05-11T16:10:07.599Z,89.70
2018-05-11T16:12:36.831Z,91.10
2018-05-11T16:15:05.996Z,88.77
2018-05-11T16:17:35.131Z,86.47
2018-05-11T16:20:04.310Z,89.07
2018-05-11T16:22:33.441Z,89.77
2018-05-11T16:25:02.627Z,85.97
2018-05-11T16:27:31.773Z,92.40
2018-05-11T16:30:00.924Z,88.97
2018-05-11T16:32:30.072Z,89.40
2018-05-11T16:34:59.299Z,92.30
2018-05-11T16:37:28.342Z,89.33
2018-05-11T16:39:57.500Z,87.73
2018-05-11T16:42:26.629Z,95.20
2018-05-11T16:44:55.748Z,92.80
2018-05-11T16:47:26.628Z,90.70
2018-05-11T16:49:55.777Z,90.90
2018-05-11T16:52:25.014Z,86.73
2018-05-11T16:54:54.192Z,92.17
2018-05-11T16:57:23.333Z,92.67
2018-05-11T16:59:52.479Z,97.00
2018-05-11T17:02:21.656Z,89.93
2018-05-11T17:04:50.771Z,94.60
2018-05-11T17:07:19.892Z,90.70
2018-05-11T17:09:49.087Z,90.80
2018-05-11T17:12:18.210Z,91.53
2018-05-11T17:14:47.347Z,93.30
2018-05-11T17:17:16.505Z,98.07
2018-05-11T17:19:45.647Z,92.53
2018-05-11T17:22:14.781Z,93.77
2018-05-11T17:24:43.955Z,89.70
2018-05-11T17:27:13.091Z,90.27
2018-05-11T17:29:42.229Z,98.67
2018-05-11T17:32:11.860Z,91.07
2018-05-11T17:34:40.981Z,93.00
2018-05-11T17:37:10.120Z,90.90
2018-05-11T17:39:39.284Z,92.90
2018-05-11T17:42:08.433Z,90.43
2018-05-11T17:44:37.572Z,91.53
2018-05-11T17:47:06.746Z,95.60
2018-05-11T17:49:36.035Z,93.93
2018-05-11T17:52:05.172Z,95.73
2018-05-11T17:54:34.316Z,95.90
2018-05-11T17:57:03.486Z,94.90
2018-05-11T17:59:32.634Z,94.13
2018-05-11T18:02:01.787Z,95.97
2018-05-11T18:04:30.951Z,92.47
2018-05-11T18:07:00.090Z,95.50
2018-05-11T18:09:29.249Z,98.40
2018-05-11T18:11:58.408Z,96.40
2018-05-11T18:14:27.538Z,103.97
2018-05-11T18:16:56.732Z,97.17
2018-05-11T18:19:25.875Z,95.40
2018-05-11T18:21:55.018Z,97.37
2018-05-11T18:24:24.175Z,100.27
2018-05-11T18:26:53.585Z,94.47
2018-05-11T18:29:22.735Z,99.30
2018-05-11T18:31:51.941Z,99.93
2018-05-11T18:34:21.120Z,101.07
2018-05-11T18:36:50.319Z,97.20
2018-05-11T18:39:19.522Z,98.13
2018-05-11T18:41:48.685Z,102.00
2018-05-11T18:44:17.889Z,99.57
2018-05-11T18:46:47.071Z,94.73
2018-05-11T18:49:16.261Z,97.40
2018-05-11T18:51:45.458Z,99.43
2018-05-11T18:54:15.009Z,97.30
2018-05-11T18:56:43.848Z,100.77
2018-05-11T18:59:13.025Z,100.90
2018-05-11T19:01:42.265Z,106.27
2018-05-11T19:04:11.357Z,101.60
2018-05-11T19:06:40.644Z,101.73
2018-05-11T19:09:09.775Z,108.50
2018-05-11T19:11:38.932Z,104.43
2018-05-11T19:14:08.132Z,99.27
2018-05-11T19:16:37.296Z,102.43
2018-05-11T19:19:06.466Z,100.27
2018-05-11T19:21:35.918Z,102.57
2018-05-11T19:24:05.262Z,102.57
2018-05-11T19:26:35.399Z,99.90
2018-05-11T19:29:04.633Z,103.07
2018-05-11T19:31:33.835Z,99.70
2018-05-11T19:34:03.033Z,107.90
2018-05-11T19:36:32.229Z,109.97
2018-05-11T19:39:01.355Z,102.43
2018-05-11T19:41:30.501Z,103.50
2018-05-11T19:43:59.656Z,107.40
2018-05-11T19:46:28.784Z,109.93
2018-05-11T19:48:57.916Z,105.87
2018-05-11T19:51:27.096Z,109.20
2018-05-11T19:53:56.271Z,109.43
2018-05-11T19:56:25.398Z,109.63
2018-05-11T19:58:54.597Z,105.30
2018-05-11T20:01:23.744Z,111.40
2018-05-11T20:03:52.878Z,108.43
2018-05-11T20:06:22.075Z,111.63
2018-05-11T20:08:51.194Z,107.17
2018-05-11T20:11:20.420Z,105.07
2018-05-11T20:13:49.585Z,106.50
2018-05-11T20:16:18.736Z,104.07
2018-05-11T20:18:47.872Z,106.83
2018-05-11T20:21:17.048Z,110.00
2018-05-11T20:23:46.193Z,107.00
2018-05-11T20:26:15.371Z,105.60
2018-05-11T20:28:44.559Z,112.23
2018-05-11T20:31:13.865Z,107.77
2018-05-11T20:33:43.008Z,110.53
2018-05-11T20:36:12.172Z,108.37
2018-05-11T20:38:41.367Z,108.97
2018-05-11T20:41:10.528Z,110.97
2018-05-11T20:43:39.676Z,110.30
2018-05-11T20:46:08.837Z,108.37
2018-05-11T20:48:37.977Z,110.17
2018-05-11T20:51:07.111Z,111.80
2018-05-11T20:53:36.316Z,112.87
2018-05-11T20:56:05.468Z,111.60
2018-05-11T20:58:34.620Z,109.80
2018-05-11T21:01:03.795Z,110.80
2018-05-11T21:03:32.951Z,109.47
2018-05-11T21:06:02.136Z,113.43
2018-05-11T21:08:31.270Z,112.23
2018-05-11T21:11:00.595Z,111.37
2018-05-11T21:13:29.780Z,112.67
2018-05-11T21:15:58.941Z,115.03
2018-05-11T21:18:28.108Z,116.97
2018-05-11T21:20:57.306Z,114.07
2018-05-11T21:23:26.452Z,120.47
2018-05-11T21:25:55.621Z,120.43
2018-05-11T21:28:24.817Z,126.90
2018-05-11T21:30:53.932Z,124.17
2018-05-11T21:33:23.097Z,121.70
2018-05-11T21:35:52.269Z,118.67
2018-05-11T21:38:21.416Z,122.80
2018-05-11T21:40:50.606Z,127.67
2018-05-11T21:43:19.766Z,123.67
2018-05-11T21:45:48.884Z,124.47
2018-05-11T21:48:18.008Z,122.07
2018-05-11T21:50:47.235Z,123.37
2018-05-11T21:53:16.368Z,122.70
2018-05-11T21:55:45.489Z,128.90
2018-05-11T21:58:14.628Z,135.60
2018-05-11T22:00:43.761Z,143.27
2018-05-11T22:03:13.245Z,135.27
2018-05-11T22:05:42.395Z,131.47
2018-05-11T22:08:11.556Z,135.63
2018-05-11T22:10:40.725Z,131.57
2018-05-11T22:13:10.330Z,132.03
2018-05-11T22:15:39.493Z,123.07
2018-05-11T22:18:08.638Z,129.57
2018-05-11T22:20:37.785Z,125.20
2018-05-11T22:23:06.928Z,129.80
2018-05-11T22:25:36.051Z,125.00
2018-05-11T22:28:05.197Z,131.53
2018-05-11T22:30:34.359Z,126.40
2018-05-11T22:33:03.503Z,136.03
2018-05-11T22:35:32.684Z,142.93
2018-05-11T22:38:01.844Z,140.97
2018-05-11T22:40:30.983Z,133.83
2018-05-11T22:43:00.481Z,138.17
2018-05-11T22:45:29.631Z,130.70
2018-05-11T22:47:58.775Z,134.87
2018-05-11T22:50:27.916Z,133.97
2018-05-11T22:52:57.069Z,133.17
2018-05-11T22:55:26.238Z,138.30
2018-05-11T22:57:55.381Z,132.63
2018-05-11T23:00:27.213Z,134.43
2018-05-11T23:02:56.353Z,133.47
2018-05-11T23:05:25.489Z,127.70
2018-05-11T23:07:54.676Z,134.67
2018-05-11T23:10:23.814Z,136.63
2018-05-11T23:12:53.064Z,138.07
2018-05-11T23:15:23.561Z,140.37
2018-05-11T23:17:52.711Z,140.17
2018-05-11T23:20:21.832Z,140.80
2018-05-11T23:22:51.012Z,139.00
2018-05-11T23:25:20.153Z,140.20
2018-05-11T23:27:49.286Z,168.20
2018-05-11T23:30:18.439Z,193.63
2018-05-11T23:32:47.586Z,235.87
2018-05-11T23:35:16.720Z,147.00
2018-05-11T23:37:45.888Z,149.27
2018-05-11T23:40:15.042Z,144.33
2018-05-11T23:42:44.191Z,141.00
2018-05-11T23:45:13.337Z,143.37
2018-05-11T23:47:42.522Z,143.30
2018-05-11T23:50:11.668Z,149.80
2018-05-11T23:52:40.789Z,149.20
2018-05-11T23:55:09.975Z,149.37
2018-05-11T23:57:39.106Z,159.63
